Time,TemperatureF,DewpointF,PressureIn,WindDirection,WindDirectionDegrees,WindSpeedMPH,WindSpeedGustMPH,Humidity,HourlyPrecipIn,Conditions,Clouds,dailyrainin,SolarRadiationWatts/m^2,SoftwareType,DateUTC
2013-06-27 00:53:00,91.0,19.0,30.00,WNW,299,13.0,19.0,7,-99.99,,,-99.99,0.000000,,2013-06-27 06:53:00,
2013-06-27 01:02:00,91.0,19.0,30.00,WNW,299,13.0,19.0,7,-99.99,,,-99.99,0.000000,,2013-06-27 07:02:00,
2013-06-27 01:12:00,91.0,19.0,30.00,WNW,299,13.0,19.0,7,-99.99,,,-99.99,0.000000,,2013-06-27 07:12:00,
2013-06-27 05:00:00,66.0,16.0,30.02,NNE,17,5.0,8.0,14,-99.99,,,-99.99,0.000000,,2013-06-27 11:00:00,
2013-06-27 05:43:00,66.0,16.0,30.02,NNE,17,5.0,8.0,14,-99.99,,,-99.99,0.000000,,2013-06-27 11:43:00,
2013-06-27 05:52:00,66.0,16.0,30.02,NNE,17,5.0,8.0,14,-99.99,,,-99.99,0.000000,,2013-06-27 11:52:00,
2013-06-27 08:22:00,70.0,18.0,30.08,West,276,2.0,3.0,13,-99.99,,,-99.99,278.239990,,2013-06-27 14:22:00,
2013-06-27 08:33:00,70.0,18.0,30.08,West,276,2.0,3.0,13,-99.99,,,-99.99,278.239990,,2013-06-27 14:33:00,
2013-06-27 08:43:00,72.0,19.0,30.09,WNW,291,0.0,2.0,13,-99.99,,,-99.99,323.559998,,2013-06-27 14:43:00,
2013-06-27 08:52:00,72.0,19.0,30.09,WNW,291,0.0,2.0,13,-99.99,,,-99.99,323.559998,,2013-06-27 14:52:00,
2013-06-27 09:11:00,79.0,20.0,30.09,North,353,1.0,2.0,10,-99.99,,,-99.99,410.029999,,2013-06-27 15:11:00,
2013-06-27 09:22:00,79.0,20.0,30.09,North,353,1.0,2.0,10,-99.99,,,-99.99,410.029999,,2013-06-27 15:22:00,
2013-06-27 09:33:00,79.0,20.0,30.09,North,353,1.0,2.0,10,-99.99,,,-99.99,410.029999,,2013-06-27 15:33:00,
2013-06-27 09:42:00,79.0,20.0,30.09,North,353,1.0,2.0,10,-99.99,,,-99.99,410.029999,,2013-06-27 15:42:00,
2013-06-27 10:11:00,87.0,22.0,30.09,NE,34,4.0,7.0,9,-99.99,,,-99.99,548.799988,,2013-06-27 16:11:00,
2013-06-27 10:23:00,87.0,22.0,30.09,NE,34,4.0,7.0,9,-99.99,,,-99.99,548.799988,,2013-06-27 16:23:00,
2013-06-27 10:34:00,87.0,22.0,30.09,NE,34,4.0,7.0,9,-99.99,,,-99.99,548.799988,,2013-06-27 16:34:00,
2013-06-27 10:43:00,89.0,22.0,30.09,North,360,3.0,6.0,8,-99.99,,,-99.99,631.780029,,2013-06-27 16:43:00,
2013-06-27 11:00:00,93.0,23.0,30.09,NNW,345,1.0,6.0,7,-99.99,,,-99.99,741.960022,,2013-06-27 17:00:00,
2013-06-27 11:01:00,90.0,22.0,30.09,NNW,331,2.0,6.0,8,-99.99,,,-99.99,671.530029,,2013-06-27 17:01:00,
2013-06-27 11:11:00,90.0,22.0,30.09,NNW,331,2.0,6.0,8,-99.99,,,-99.99,671.530029,,2013-06-27 17:11:00,
2013-06-27 11:22:00,93.0,23.0,30.09,NNW,345,1.0,6.0,7,-99.99,,,-99.99,741.960022,,2013-06-27 17:22:00,
2013-06-27 11:33:00,93.0,23.0,30.09,NNW,345,1.0,6.0,7,-99.99,,,-99.99,741.960022,,2013-06-27 17:33:00,
2013-06-27 11:43:00,93.0,23.0,30.09,NNW,345,1.0,6.0,7,-99.99,,,-99.99,741.960022,,2013-06-27 17:43:00,
2013-06-27 11:53:00,93.0,23.0,30.09,NNW,345,1.0,6.0,7,-99.99,,,-99.99,741.960022,,2013-06-27 17:53:00,
2013-06-27 12:11:00,96.0,24.0,30.08,NNE,25,2.0,5.0,7,-99.99,,,-99.99,780.320007,,2013-06-27 18:11:00,
2013-06-27 12:22:00,96.0,24.0,30.08,NNE,25,2.0,5.0,7,-99.99,,,-99.99,780.320007,,2013-06-27 18:22:00,
2013-06-27 12:32:00,96.0,24.0,30.08,NNE,25,2.0,5.0,7,-99.99,,,-99.99,780.320007,,2013-06-27 18:32:00,
2013-06-27 12:44:00,96.0,24.0,30.08,NNE,25,2.0,5.0,7,-99.99,,,-99.99,780.320007,,2013-06-27 18:44:00,
2013-06-27 14:22:00,103.0,25.0,30.04,SE,129,5.0,13.0,6,-99.99,,,-99.99,896.770020,,2013-06-27 20:22:00,
2013-06-27 14:45:00,104.0,25.0,30.03,East,100,4.0,10.0,6,-99.99,,,-99.99,880.030029,,2013-06-27 20:45:00,
2013-06-27 15:03:00,104.0,25.0,30.03,East,100,4.0,10.0,6,-99.99,,,-99.99,880.030029,,2013-06-27 21:03:00,
2013-06-27 15:13:00,104.0,25.0,30.02,East,79,5.0,13.0,6,-99.99,,,-99.99,834.710022,,2013-06-27 21:13:00,
2013-06-27 15:24:00,105.0,25.0,30.01,ENE,77,3.0,11.0,5,-99.99,,,-99.99,813.789978,,2013-06-27 21:24:00,
2013-06-27 15:36:00,105.0,25.0,30.01,ENE,77,3.0,11.0,5,-99.99,,,-99.99,813.789978,,2013-06-27 21:36:00,
2013-06-27 15:55:00,105.0,25.0,30.01,ENE,77,3.0,11.0,5,-99.99,,,-99.99,813.789978,,2013-06-27 21:55:00,
2013-06-27 16:00:00,106.0,25.0,29.99,SSW,198,7.0,17.0,5,-99.99,,,-99.99,712.669983,,2013-06-27 22:00:00,
2013-06-27 16:23:00,106.0,25.0,29.99,SSW,198,7.0,17.0,5,-99.99,,,-99.99,712.669983,,2013-06-27 22:23:00,
2013-06-27 16:30:00,106.0,25.0,29.99,ESE,109,5.0,15.0,5,-99.99,,,-99.99,662.469971,,2013-06-27 22:30:00,
2013-06-27 16:34:00,106.0,25.0,29.99,SSW,198,7.0,17.0,5,-99.99,,,-99.99,712.669983,,2013-06-27 22:34:00,
2013-06-27 16:47:00,106.0,25.0,29.99,SSW,198,7.0,17.0,5,-99.99,,,-99.99,712.669983,,2013-06-27 22:47:00,
2013-06-27 17:15:00,106.0,25.0,29.99,ESE,109,5.0,15.0,5,-99.99,,,-99.99,662.469971,,2013-06-27 23:15:00,
2013-06-27 17:25:00,106.0,25.0,29.99,ESE,109,5.0,15.0,5,-99.99,,,-99.99,662.469971,,2013-06-27 23:25:00,
2013-06-27 18:45:00,104.0,25.0,29.96,SSE,156,5.0,10.0,6,-99.99,,,-99.99,71.129997,,2013-06-28 00:45:00,
2013-06-27 19:06:00,104.0,25.0,29.96,ESE,114,5.0,10.0,6,-99.99,,,-99.99,87.169998,,2013-06-28 01:06:00,
2013-06-27 19:13:00,104.0,25.0,29.96,ESE,111,3.0,7.0,6,-99.99,,,-99.99,43.230000,,2013-06-28 01:13:00,
2013-06-27 19:24:00,103.0,25.0,29.97,SSE,157,4.0,7.0,6,-99.99,,,-99.99,37.660000,,2013-06-28 01:24:00,
2013-06-27 19:35:00,103.0,25.0,29.97,SSE,157,4.0,7.0,6,-99.99,,,-99.99,37.660000,,2013-06-28 01:35:00,
2013-06-27 19:45:00,102.0,25.0,29.97,SSE,157,3.0,4.0,6,-99.99,,,-99.99,30.680000,,2013-06-28 01:45:00,
2013-06-27 19:57:00,102.0,25.0,29.97,SSE,168,4.0,5.0,6,-99.99,,,-99.99,23.010000,,2013-06-28 01:57:00,
2013-06-27 20:04:00,102.0,25.0,29.97,SSE,168,4.0,5.0,6,-99.99,,,-99.99,23.010000,,2013-06-28 02:04:00,
2013-06-27 20:16:00,102.0,24.0,29.97,SW,226,2.0,4.0,6,-99.99,,,-99.99,26.500000,,2013-06-28 02:16:00,
2013-06-27 20:26:00,101.0,25.0,29.97,WSW,254,2.0,4.0,6,-99.99,,,-99.99,22.309999,,2013-06-28 02:26:00,
2013-06-27 20:35:00,101.0,25.0,29.97,WSW,254,2.0,4.0,6,-99.99,,,-99.99,22.309999,,2013-06-28 02:35:00,
2013-06-27 20:48:00,99.0,25.0,29.97,West,263,3.0,4.0,7,-99.99,,,-99.99,4.180000,,2013-06-28 02:48:00,
2013-06-27 21:05:00,97.0,25.0,29.98,SSE,158,4.0,9.0,7,-99.99,,,-99.99,1.390000,,2013-06-28 03:05:00,
2013-06-27 21:14:00,97.0,25.0,29.98,ESE,120,6.0,9.0,7,-99.99,,,-99.99,0.000000,,2013-06-28 03:14:00,
2013-06-27 21:26:00,96.0,25.0,29.98,ESE,118,8.0,10.0,7,-99.99,,,-99.99,0.000000,,2013-06-28 03:26:00,
2013-06-27 21:36:00,96.0,25.0,29.98,ESE,118,8.0,10.0,7,-99.99,,,-99.99,0.000000,,2013-06-28 03:36:00,
2013-06-27 21:44:00,93.0,25.0,29.99,ESE,118,9.0,12.0,8,-99.99,,,-99.99,0.000000,,2013-06-28 03:44:00,
2013-06-27 21:56:00,92.0,24.0,29.99,SE,146,10.0,12.0,8,-99.99,,,-99.99,0.000000,,2013-06-28 03:56:00,
2013-06-27 22:02:00,92.0,24.0,29.99,SE,146,10.0,12.0,8,-99.99,,,-99.99,0.000000,,2013-06-28 04:02:00,
2013-06-27 22:11:00,92.0,24.0,29.99,SE,146,8.0,10.0,8,-99.99,,,-99.99,0.000000,,2013-06-28 04:11:00,
2013-06-27 22:22:00,91.0,24.0,30.00,ESE,116,9.0,14.0,8,-99.99,,,-99.99,0.000000,,2013-06-28 04:22:00,
2013-06-27 22:33:00,91.0,24.0,30.00,ESE,116,9.0,14.0,8,-99.99,,,-99.99,0.000000,,2013-06-28 04:33:00,
2013-06-27 22:43:00,89.0,25.0,30.01,ESE,123,9.0,14.0,9,-99.99,,,-99.99,0.000000,,2013-06-28 04:43:00,
2013-06-27 23:01:00,91.0,28.0,30.02,ESE,123,10.0,14.0,10,-99.99,,,-99.99,0.000000,,2013-06-28 05:01:00,
2013-06-27 23:11:00,91.0,30.0,30.02,ESE,117,9.0,12.0,11,-99.99,,,-99.99,0.000000,,2013-06-28 05:11:00,
2013-06-27 23:22:00,90.0,31.0,30.03,SE,135,6.0,9.0,12,-99.99,,,-99.99,0.000000,,2013-06-28 05:22:00,
2013-06-27 23:33:00,90.0,31.0,30.03,SE,135,6.0,9.0,12,-99.99,,,-99.99,0.000000,,2013-06-28 05:33:00,
2013-06-27 23:43:00,85.0,27.0,30.05,WSW,248,6.0,9.0,12,-99.99,,,-99.99,0.000000,,2013-06-28 05:43:00,